sensor_id;sensor_type;location;lat;lon;timestamp;P1;durP1;ratioP1;P2;durP2;ratioP2
19645;SDS011;9971;52.446;13.452;2023-03-31T00:00:38;1.62;;;1.30;;
19645;SDS011;9971;52.446;13.452;2023-03-31T00:05:40;1.57;;;1.17;;
19645;SDS011;9971;52.446;13.452;2023-03-31T00:10:43;2.67;;;1.75;;
19645;SDS011;9971;52.446;13.452;2023-03-31T00:15:45;4.33;;;1.73;;
19645;SDS011;9971;52.446;13.452;2023-03-31T00:20:47;2.80;;;1.50;;
19645;SDS011;9971;52.446;13.452;2023-03-31T00:25:49;2.15;;;1.30;;
19645;SDS011;9971;52.446;13.452;2023-03-31T00:30:52;2.50;;;1.27;;
19645;SDS011;9971;52.446;13.452;2023-03-31T00:35:54;4.43;;;1.40;;
19645;SDS011;9971;52.446;13.452;2023-03-31T00:40:57;3.27;;;1.23;;
19645;SDS011;9971;52.446;13.452;2023-03-31T00:46:04;3.40;;;1.27;;
19645;SDS011;9971;52.446;13.452;2023-03-31T00:51:10;2.90;;;1.53;;
19645;SDS011;9971;52.446;13.452;2023-03-31T00:56:12;1.02;;;0.93;;
19645;SDS011;9971;52.446;13.452;2023-03-31T01:01:16;2.77;;;1.40;;
19645;SDS011;9971;52.446;13.452;2023-03-31T01:06:17;2.05;;;1.20;;
19645;SDS011;9971;52.446;13.452;2023-03-31T01:11:19;3.10;;;1.27;;
19645;SDS011;9971;52.446;13.452;2023-03-31T01:16:21;1.23;;;1.10;;
19645;SDS011;9971;52.446;13.452;2023-03-31T01:37:33;2.53;;;1.07;;
19645;SDS011;9971;52.446;13.452;2023-03-31T01:42:54;2.87;;;1.30;;
19645;SDS011;9971;52.446;13.452;2023-03-31T01:47:55;2.93;;;1.03;;
19645;SDS011;9971;52.446;13.452;2023-03-31T01:53:01;2.83;;;1.50;;
19645;SDS011;9971;52.446;13.452;2023-03-31T01:58:04;2.50;;;1.05;;
19645;SDS011;9971;52.446;13.452;2023-03-31T02:03:21;3.33;;;1.10;;
19645;SDS011;9971;52.446;13.452;2023-03-31T02:08:28;4.03;;;1.35;;
19645;SDS011;9971;52.446;13.452;2023-03-31T02:13:29;3.17;;;1.10;;
19645;SDS011;9971;52.446;13.452;2023-03-31T02:18:31;3.73;;;1.60;;
19645;SDS011;9971;52.446;13.452;2023-03-31T02:23:33;1.67;;;1.03;;
19645;SDS011;9971;52.446;13.452;2023-03-31T02:28:35;3.63;;;1.43;;
19645;SDS011;9971;52.446;13.452;2023-03-31T02:33:37;2.17;;;1.10;;
19645;SDS011;9971;52.446;13.452;2023-03-31T02:38:42;2.17;;;1.25;;
19645;SDS011;9971;52.446;13.452;2023-03-31T02:43:43;2.77;;;1.00;;
19645;SDS011;9971;52.446;13.452;2023-03-31T02:48:47;1.72;;;1.02;;
19645;SDS011;9971;52.446;13.452;2023-03-31T03:05:37;2.17;;;1.07;;
19645;SDS011;9971;52.446;13.452;2023-03-31T03:10:05;1.50;;;1.13;;
19645;SDS011;9971;52.446;13.452;2023-03-31T03:15:10;1.95;;;1.15;;
19645;SDS011;9971;52.446;13.452;2023-03-31T03:20:12;3.03;;;1.07;;
19645;SDS011;9971;52.446;13.452;2023-03-31T03:25:14;2.47;;;0.97;;
19645;SDS011;9971;52.446;13.452;2023-03-31T03:30:17;1.93;;;0.90;;
19645;SDS011;9971;52.446;13.452;2023-03-31T03:35:19;3.80;;;1.30;;
19645;SDS011;9971;52.446;13.452;2023-03-31T03:40:22;3.47;;;1.15;;
19645;SDS011;9971;52.446;13.452;2023-03-31T03:45:24;2.17;;;1.15;;
19645;SDS011;9971;52.446;13.452;2023-03-31T03:50:27;4.55;;;1.17;;
19645;SDS011;9971;52.446;13.452;2023-03-31T03:55:29;1.10;;;0.95;;
19645;SDS011;9971;52.446;13.452;2023-03-31T04:00:32;2.67;;;0.95;;
19645;SDS011;9971;52.446;13.452;2023-03-31T04:05:34;2.70;;;1.10;;
19645;SDS011;9971;52.446;13.452;2023-03-31T04:10:36;1.75;;;1.20;;
19645;SDS011;9971;52.446;13.452;2023-03-31T04:15:39;2.87;;;1.03;;
19645;SDS011;9971;52.446;13.452;2023-03-31T04:20:41;4.05;;;1.20;;
19645;SDS011;9971;52.446;13.452;2023-03-31T04:25:43;2.27;;;1.10;;
19645;SDS011;9971;52.446;13.452;2023-03-31T04:30:45;0.93;;;0.90;;
19645;SDS011;9971;52.446;13.452;2023-03-31T04:35:48;1.87;;;1.40;;
19645;SDS011;9971;52.446;13.452;2023-03-31T04:40:51;1.67;;;1.15;;
19645;SDS011;9971;52.446;13.452;2023-03-31T04:45:52;2.00;;;1.20;;
19645;SDS011;9971;52.446;13.452;2023-03-31T04:50:55;3.20;;;1.32;;
19645;SDS011;9971;52.446;13.452;2023-03-31T04:55:57;2.60;;;1.25;;
19645;SDS011;9971;52.446;13.452;2023-03-31T05:01:00;2.53;;;1.20;;
19645;SDS011;9971;52.446;13.452;2023-03-31T05:06:02;3.17;;;1.47;;
19645;SDS011;9971;52.446;13.452;2023-03-31T05:11:04;2.45;;;1.35;;
19645;SDS011;9971;52.446;13.452;2023-03-31T05:16:08;3.37;;;1.47;;
19645;SDS011;9971;52.446;13.452;2023-03-31T05:21:11;2.95;;;1.30;;
19645;SDS011;9971;52.446;13.452;2023-03-31T05:26:13;3.47;;;1.47;;
19645;SDS011;9971;52.446;13.452;2023-03-31T05:31:15;3.17;;;1.20;;
19645;SDS011;9971;52.446;13.452;2023-03-31T05:36:17;3.92;;;1.45;;
19645;SDS011;9971;52.446;13.452;2023-03-31T05:41:19;4.17;;;1.23;;
19645;SDS011;9971;52.446;13.452;2023-03-31T05:46:22;3.40;;;1.95;;
19645;SDS011;9971;52.446;13.452;2023-03-31T05:51:24;2.62;;;1.40;;
19645;SDS011;9971;52.446;13.452;2023-03-31T05:56:27;4.35;;;1.40;;
19645;SDS011;9971;52.446;13.452;2023-03-31T06:01:29;2.92;;;1.60;;
19645;SDS011;9971;52.446;13.452;2023-03-31T06:06:32;3.47;;;1.40;;
19645;SDS011;9971;52.446;13.452;2023-03-31T06:11:34;3.20;;;1.60;;
19645;SDS011;9971;52.446;13.452;2023-03-31T06:16:36;3.22;;;1.85;;
19645;SDS011;9971;52.446;13.452;2023-03-31T06:21:39;3.57;;;1.30;;
19645;SDS011;9971;52.446;13.452;2023-03-31T06:26:41;5.08;;;1.47;;
19645;SDS011;9971;52.446;13.452;2023-03-31T06:31:44;2.95;;;1.57;;
19645;SDS011;9971;52.446;13.452;2023-03-31T06:36:46;4.28;;;1.60;;
19645;SDS011;9971;52.446;13.452;2023-03-31T06:41:50;1.87;;;1.30;;
19645;SDS011;9971;52.446;13.452;2023-03-31T06:46:52;6.87;;;1.50;;
19645;SDS011;9971;52.446;13.452;2023-03-31T06:51:54;4.65;;;1.50;;
19645;SDS011;9971;52.446;13.452;2023-03-31T06:56:57;5.60;;;1.30;;
19645;SDS011;9971;52.446;13.452;2023-03-31T07:01:59;5.33;;;1.77;;
19645;SDS011;9971;52.446;13.452;2023-03-31T07:07:02;2.47;;;1.60;;
19645;SDS011;9971;52.446;13.452;2023-03-31T07:12:04;3.43;;;1.70;;
19645;SDS011;9971;52.446;13.452;2023-03-31T07:17:06;4.60;;;1.50;;
19645;SDS011;9971;52.446;13.452;2023-03-31T07:22:09;2.92;;;1.60;;
19645;SDS011;9971;52.446;13.452;2023-03-31T07:27:11;3.98;;;1.60;;
19645;SDS011;9971;52.446;13.452;2023-03-31T07:32:14;2.55;;;1.40;;
19645;SDS011;9971;52.446;13.452;2023-03-31T07:37:17;2.92;;;1.35;;
19645;SDS011;9971;52.446;13.452;2023-03-31T07:42:19;3.12;;;1.45;;
19645;SDS011;9971;52.446;13.452;2023-03-31T07:47:22;3.55;;;1.60;;
19645;SDS011;9971;52.446;13.452;2023-03-31T07:52:24;3.50;;;1.50;;
19645;SDS011;9971;52.446;13.452;2023-03-31T07:57:26;3.87;;;1.27;;
19645;SDS011;9971;52.446;13.452;2023-03-31T08:02:29;3.60;;;1.52;;
19645;SDS011;9971;52.446;13.452;2023-03-31T08:07:33;6.05;;;1.70;;
19645;SDS011;9971;52.446;13.452;2023-03-31T08:12:34;2.65;;;1.22;;
19645;SDS011;9971;52.446;13.452;2023-03-31T08:17:37;2.83;;;1.43;;
19645;SDS011;9971;52.446;13.452;2023-03-31T08:22:39;4.20;;;1.55;;
19645;SDS011;9971;52.446;13.452;2023-03-31T08:27:41;4.17;;;1.67;;
19645;SDS011;9971;52.446;13.452;2023-03-31T08:32:43;1.70;;;1.00;;
19645;SDS011;9971;52.446;13.452;2023-03-31T08:37:46;2.60;;;1.17;;
19645;SDS011;9971;52.446;13.452;2023-03-31T08:42:49;2.37;;;1.30;;
19645;SDS011;9971;52.446;13.452;2023-03-31T08:47:52;3.50;;;1.17;;
19645;SDS011;9971;52.446;13.452;2023-03-31T08:52:58;2.30;;;1.30;;
19645;SDS011;9971;52.446;13.452;2023-03-31T08:58:08;4.00;;;1.40;;
19645;SDS011;9971;52.446;13.452;2023-03-31T09:03:15;3.10;;;1.57;;
19645;SDS011;9971;52.446;13.452;2023-03-31T09:08:30;3.55;;;1.22;;
19645;SDS011;9971;52.446;13.452;2023-03-31T09:18:44;3.03;;;0.97;;
19645;SDS011;9971;52.446;13.452;2023-03-31T09:23:50;2.37;;;1.37;;
19645;SDS011;9971;52.446;13.452;2023-03-31T09:28:51;3.73;;;1.57;;
19645;SDS011;9971;52.446;13.452;2023-03-31T09:33:56;2.57;;;1.30;;
19645;SDS011;9971;52.446;13.452;2023-03-31T09:38:55;2.80;;;1.30;;
19645;SDS011;9971;52.446;13.452;2023-03-31T09:43:58;2.02;;;1.20;;
19645;SDS011;9971;52.446;13.452;2023-03-31T09:49:01;2.52;;;1.10;;
19645;SDS011;9971;52.446;13.452;2023-03-31T09:54:09;4.58;;;1.50;;
19645;SDS011;9971;52.446;13.452;2023-03-31T09:59:13;2.50;;;1.20;;
19645;SDS011;9971;52.446;13.452;2023-03-31T10:04:17;1.83;;;1.20;;
19645;SDS011;9971;52.446;13.452;2023-03-31T10:09:18;2.55;;;0.95;;
19645;SDS011;9971;52.446;13.452;2023-03-31T10:14:23;3.47;;;1.50;;
19645;SDS011;9971;52.446;13.452;2023-03-31T10:19:23;1.57;;;1.23;;
19645;SDS011;9971;52.446;13.452;2023-03-31T10:24:24;2.47;;;1.17;;
19645;SDS011;9971;52.446;13.452;2023-03-31T10:29:28;2.17;;;1.40;;
19645;SDS011;9971;52.446;13.452;2023-03-31T10:34:31;3.60;;;1.30;;
19645;SDS011;9971;52.446;13.452;2023-03-31T10:39:33;2.53;;;1.33;;
19645;SDS011;9971;52.446;13.452;2023-03-31T10:44:36;3.70;;;1.20;;
19645;SDS011;9971;52.446;13.452;2023-03-31T10:49:38;3.43;;;1.57;;
19645;SDS011;9971;52.446;13.452;2023-03-31T10:54:45;3.20;;;1.37;;
19645;SDS011;9971;52.446;13.452;2023-03-31T10:59:48;1.97;;;1.23;;
19645;SDS011;9971;52.446;13.452;2023-03-31T11:05:07;4.30;;;1.57;;
19645;SDS011;9971;52.446;13.452;2023-03-31T11:10:16;1.62;;;1.30;;
19645;SDS011;9971;52.446;13.452;2023-03-31T11:15:23;3.37;;;1.30;;
19645;SDS011;9971;52.446;13.452;2023-03-31T11:25:49;3.30;;;1.25;;
19645;SDS011;9971;52.446;13.452;2023-03-31T11:30:57;2.40;;;1.20;;
19645;SDS011;9971;52.446;13.452;2023-03-31T11:41:29;2.30;;;1.30;;
19645;SDS011;9971;52.446;13.452;2023-03-31T11:46:31;1.47;;;1.07;;
19645;SDS011;9971;52.446;13.452;2023-03-31T11:51:41;1.20;;;1.10;;
19645;SDS011;9971;52.446;13.452;2023-03-31T11:56:40;2.05;;;1.40;;
19645;SDS011;9971;52.446;13.452;2023-03-31T12:01:47;2.90;;;1.60;;
19645;SDS011;9971;52.446;13.452;2023-03-31T12:06:49;3.95;;;1.57;;
19645;SDS011;9971;52.446;13.452;2023-03-31T12:12:02;2.77;;;1.37;;
19645;SDS011;9971;52.446;13.452;2023-03-31T12:17:09;3.07;;;1.33;;
19645;SDS011;9971;52.446;13.452;2023-03-31T12:22:14;2.93;;;1.40;;
19645;SDS011;9971;52.446;13.452;2023-03-31T12:27:25;4.33;;;1.60;;
19645;SDS011;9971;52.446;13.452;2023-03-31T12:32:27;2.33;;;1.07;;
19645;SDS011;9971;52.446;13.452;2023-03-31T12:37:33;0.57;;;0.30;;
19645;SDS011;9971;52.446;13.452;2023-03-31T12:42:41;1.30;;;0.60;;
19645;SDS011;9971;52.446;13.452;2023-03-31T12:53:24;1.32;;;1.05;;
19645;SDS011;9971;52.446;13.452;2023-03-31T13:03:38;2.13;;;1.23;;
19645;SDS011;9971;52.446;13.452;2023-03-31T13:13:57;2.93;;;1.60;;
19645;SDS011;9971;52.446;13.452;2023-03-31T13:18:57;1.40;;;1.30;;
19645;SDS011;9971;52.446;13.452;2023-03-31T13:23:59;1.37;;;1.27;;
19645;SDS011;9971;52.446;13.452;2023-03-31T13:34:12;2.43;;;1.50;;
19645;SDS011;9971;52.446;13.452;2023-03-31T13:44:25;3.67;;;2.20;;
19645;SDS011;9971;52.446;13.452;2023-03-31T13:54:57;2.75;;;1.60;;
19645;SDS011;9971;52.446;13.452;2023-03-31T14:00:13;1.90;;;1.70;;
19645;SDS011;9971;52.446;13.452;2023-03-31T14:05:32;3.27;;;1.97;;
19645;SDS011;9971;52.446;13.452;2023-03-31T14:10:37;2.13;;;1.90;;
19645;SDS011;9971;52.446;13.452;2023-03-31T14:15:55;2.08;;;1.82;;
19645;SDS011;9971;52.446;13.452;2023-03-31T14:21:04;1.70;;;1.33;;
19645;SDS011;9971;52.446;13.452;2023-03-31T14:26:12;2.50;;;1.13;;
19645;SDS011;9971;52.446;13.452;2023-03-31T14:31:34;1.27;;;0.70;;
19645;SDS011;9971;52.446;13.452;2023-03-31T14:36:44;1.20;;;1.00;;
19645;SDS011;9971;52.446;13.452;2023-03-31T14:41:59;1.20;;;1.10;;
19645;SDS011;9971;52.446;13.452;2023-03-31T14:47:00;1.50;;;0.88;;
19645;SDS011;9971;52.446;13.452;2023-03-31T14:52:11;1.12;;;0.82;;
19645;SDS011;9971;52.446;13.452;2023-03-31T14:57:05;1.92;;;1.47;;
19645;SDS011;9971;52.446;13.452;2023-03-31T15:02:08;1.90;;;0.93;;
19645;SDS011;9971;52.446;13.452;2023-03-31T15:07:13;1.62;;;1.05;;
19645;SDS011;9971;52.446;13.452;2023-03-31T15:12:16;0.90;;;0.90;;
19645;SDS011;9971;52.446;13.452;2023-03-31T15:17:18;1.53;;;0.90;;
19645;SDS011;9971;52.446;13.452;2023-03-31T15:22:20;1.77;;;1.10;;
19645;SDS011;9971;52.446;13.452;2023-03-31T15:27:29;3.17;;;1.12;;
19645;SDS011;9971;52.446;13.452;2023-03-31T15:32:38;2.07;;;1.23;;
19645;SDS011;9971;52.446;13.452;2023-03-31T15:37:41;1.22;;;0.88;;
19645;SDS011;9971;52.446;13.452;2023-03-31T15:42:43;1.80;;;1.63;;
19645;SDS011;9971;52.446;13.452;2023-03-31T15:47:47;2.90;;;1.52;;
19645;SDS011;9971;52.446;13.452;2023-03-31T15:52:52;1.45;;;1.22;;
19645;SDS011;9971;52.446;13.452;2023-03-31T15:57:54;2.55;;;1.30;;
19645;SDS011;9971;52.446;13.452;2023-03-31T16:02:56;1.50;;;1.40;;
19645;SDS011;9971;52.446;13.452;2023-03-31T16:07:58;2.97;;;1.30;;
19645;SDS011;9971;52.446;13.452;2023-03-31T16:13:02;2.43;;;1.60;;
19645;SDS011;9971;52.446;13.452;2023-03-31T16:18:04;1.40;;;1.30;;
19645;SDS011;9971;52.446;13.452;2023-03-31T16:23:12;2.73;;;1.83;;
19645;SDS011;9971;52.446;13.452;2023-03-31T16:28:16;2.33;;;2.07;;
19645;SDS011;9971;52.446;13.452;2023-03-31T16:33:18;1.75;;;1.25;;
19645;SDS011;9971;52.446;13.452;2023-03-31T16:38:22;2.33;;;1.70;;
19645;SDS011;9971;52.446;13.452;2023-03-31T16:43:24;1.60;;;1.50;;
19645;SDS011;9971;52.446;13.452;2023-03-31T16:48:26;1.98;;;1.30;;
19645;SDS011;9971;52.446;13.452;2023-03-31T16:53:29;2.23;;;1.63;;
19645;SDS011;9971;52.446;13.452;2023-03-31T16:58:30;2.67;;;1.40;;
19645;SDS011;9971;52.446;13.452;2023-03-31T17:03:33;2.02;;;1.87;;
19645;SDS011;9971;52.446;13.452;2023-03-31T17:08:35;6.17;;;5.17;;
19645;SDS011;9971;52.446;13.452;2023-03-31T17:13:37;3.62;;;2.10;;
19645;SDS011;9971;52.446;13.452;2023-03-31T17:18:39;2.67;;;1.70;;
19645;SDS011;9971;52.446;13.452;2023-03-31T17:23:41;1.85;;;1.75;;
19645;SDS011;9971;52.446;13.452;2023-03-31T17:28:44;1.98;;;1.80;;
19645;SDS011;9971;52.446;13.452;2023-03-31T17:33:46;2.47;;;2.27;;
19645;SDS011;9971;52.446;13.452;2023-03-31T17:38:49;2.45;;;1.82;;
19645;SDS011;9971;52.446;13.452;2023-03-31T17:43:51;1.40;;;1.10;;
19645;SDS011;9971;52.446;13.452;2023-03-31T17:48:54;2.45;;;1.85;;
19645;SDS011;9971;52.446;13.452;2023-03-31T17:53:57;2.73;;;1.80;;
19645;SDS011;9971;52.446;13.452;2023-03-31T17:59:00;2.60;;;2.10;;
19645;SDS011;9971;52.446;13.452;2023-03-31T18:04:02;2.50;;;2.27;;
19645;SDS011;9971;52.446;13.452;2023-03-31T18:09:04;2.40;;;2.20;;
19645;SDS011;9971;52.446;13.452;2023-03-31T18:14:07;2.65;;;2.45;;
19645;SDS011;9971;52.446;13.452;2023-03-31T18:19:09;2.87;;;2.40;;
19645;SDS011;9971;52.446;13.452;2023-03-31T18:24:11;3.15;;;2.90;;
19645;SDS011;9971;52.446;13.452;2023-03-31T18:29:13;4.47;;;4.08;;
19645;SDS011;9971;52.446;13.452;2023-03-31T18:34:16;5.50;;;4.70;;
19645;SDS011;9971;52.446;13.452;2023-03-31T18:39:18;3.60;;;3.30;;
19645;SDS011;9971;52.446;13.452;2023-03-31T18:44:21;5.50;;;3.45;;
19645;SDS011;9971;52.446;13.452;2023-03-31T18:49:23;4.17;;;2.90;;
19645;SDS011;9971;52.446;13.452;2023-03-31T18:54:26;3.70;;;3.40;;
19645;SDS011;9971;52.446;13.452;2023-03-31T18:59:29;3.58;;;3.30;;
19645;SDS011;9971;52.446;13.452;2023-03-31T19:04:31;4.60;;;4.15;;
19645;SDS011;9971;52.446;13.452;2023-03-31T19:09:34;4.12;;;3.80;;
19645;SDS011;9971;52.446;13.452;2023-03-31T19:14:36;5.47;;;4.80;;
19645;SDS011;9971;52.446;13.452;2023-03-31T19:19:38;5.15;;;4.33;;
19645;SDS011;9971;52.446;13.452;2023-03-31T19:24:41;8.53;;;7.72;;
19645;SDS011;9971;52.446;13.452;2023-03-31T19:54:43;4.00;;;3.67;;
19645;SDS011;9971;52.446;13.452;2023-03-31T19:59:46;4.05;;;3.75;;
19645;SDS011;9971;52.446;13.452;2023-03-31T20:04:49;4.10;;;3.80;;
19645;SDS011;9971;52.446;13.452;2023-03-31T20:09:52;4.33;;;3.92;;
19645;SDS011;9971;52.446;13.452;2023-03-31T20:14:55;4.83;;;4.33;;
19645;SDS011;9971;52.446;13.452;2023-03-31T20:19:58;5.27;;;4.87;;
19645;SDS011;9971;52.446;13.452;2023-03-31T20:25:00;5.67;;;5.12;;
19645;SDS011;9971;52.446;13.452;2023-03-31T20:30:03;6.25;;;5.30;;
19645;SDS011;9971;52.446;13.452;2023-03-31T20:35:06;5.90;;;5.30;;
19645;SDS011;9971;52.446;13.452;2023-03-31T20:40:09;5.35;;;4.92;;
19645;SDS011;9971;52.446;13.452;2023-03-31T20:45:11;4.72;;;4.30;;
19645;SDS011;9971;52.446;13.452;2023-03-31T20:50:17;5.60;;;5.10;;
19645;SDS011;9971;52.446;13.452;2023-03-31T20:55:19;6.05;;;4.60;;
19645;SDS011;9971;52.446;13.452;2023-03-31T21:00:22;4.15;;;3.80;;
19645;SDS011;9971;52.446;13.452;2023-03-31T21:05:24;4.00;;;3.60;;
19645;SDS011;9971;52.446;13.452;2023-03-31T21:10:27;4.35;;;3.22;;
19645;SDS011;9971;52.446;13.452;2023-03-31T21:15:30;2.43;;;2.23;;
19645;SDS011;9971;52.446;13.452;2023-03-31T21:20:33;2.15;;;2.05;;
19645;SDS011;9971;52.446;13.452;2023-03-31T21:25:35;1.60;;;1.50;;
19645;SDS011;9971;52.446;13.452;2023-03-31T21:30:38;1.70;;;1.60;;
19645;SDS011;9971;52.446;13.452;2023-03-31T21:35:40;2.05;;;1.60;;
19645;SDS011;9971;52.446;13.452;2023-03-31T21:40:43;1.60;;;1.42;;
19645;SDS011;9971;52.446;13.452;2023-03-31T21:45:45;1.82;;;1.52;;
19645;SDS011;9971;52.446;13.452;2023-03-31T21:50:49;1.63;;;1.40;;
19645;SDS011;9971;52.446;13.452;2023-03-31T21:55:50;1.70;;;1.60;;
19645;SDS011;9971;52.446;13.452;2023-03-31T22:00:55;2.00;;;1.47;;
19645;SDS011;9971;52.446;13.452;2023-03-31T22:05:58;1.83;;;1.70;;
19645;SDS011;9971;52.446;13.452;2023-03-31T22:11:00;3.17;;;1.73;;
19645;SDS011;9971;52.446;13.452;2023-03-31T22:16:02;1.50;;;1.40;;
19645;SDS011;9971;52.446;13.452;2023-03-31T22:21:11;1.60;;;1.20;;
19645;SDS011;9971;52.446;13.452;2023-03-31T22:26:06;1.73;;;1.27;;
19645;SDS011;9971;52.446;13.452;2023-03-31T22:31:09;1.50;;;1.40;;
19645;SDS011;9971;52.446;13.452;2023-03-31T22:36:13;2.35;;;1.47;;
19645;SDS011;9971;52.446;13.452;2023-03-31T22:41:15;1.55;;;1.25;;
19645;SDS011;9971;52.446;13.452;2023-03-31T22:46:18;1.30;;;1.20;;
19645;SDS011;9971;52.446;13.452;2023-03-31T22:51:21;1.98;;;1.60;;
19645;SDS011;9971;52.446;13.452;2023-03-31T22:56:23;1.50;;;1.30;;
19645;SDS011;9971;52.446;13.452;2023-03-31T23:01:26;1.60;;;1.42;;
19645;SDS011;9971;52.446;13.452;2023-03-31T23:06:28;1.55;;;1.45;;
19645;SDS011;9971;52.446;13.452;2023-03-31T23:11:30;1.57;;;1.47;;
19645;SDS011;9971;52.446;13.452;2023-03-31T23:16:33;1.90;;;1.70;;
19645;SDS011;9971;52.446;13.452;2023-03-31T23:21:35;1.25;;;1.12;;
19645;SDS011;9971;52.446;13.452;2023-03-31T23:26:37;1.17;;;1.10;;
19645;SDS011;9971;52.446;13.452;2023-03-31T23:31:40;1.83;;;1.40;;
19645;SDS011;9971;52.446;13.452;2023-03-31T23:36:43;2.10;;;1.20;;
19645;SDS011;9971;52.446;13.452;2023-03-31T23:41:45;1.10;;;1.00;;
19645;SDS011;9971;52.446;13.452;2023-03-31T23:46:47;1.30;;;1.20;;
19645;SDS011;9971;52.446;13.452;2023-03-31T23:51:50;1.45;;;1.30;;
19645;SDS011;9971;52.446;13.452;2023-03-31T23:56:52;1.25;;;1.15;;
